Arcadia, Pennsylvania
Current Conditions -  °F | °C
As of 3:35 AM on Monday 24 Nov 2014 (Local Time) from KIDI Reporting Station
Overcast Overcast  
Wind Chill: 55°   Ceiling: 4900
Heat Index: 55°   Visibility: 10mi
Dew Point: 50°   Wind: 13mph
Humidity: 82%   Direction: 170°S
Pressure: 29.49"   Gusts: NA
Location:  40.78°N, 78.85°W
Report Text: KIDI 240835Z AUTO 17011KT 120V190 10SM FEW032 BKN049 OVC055 13/10 A2949 RMK A01
Loading
Personal Weather Stations






























Interactive Weather Map New forecast layout! Learn more

10-Day Weather Forecast

Advertisements
Track Severe Weather on mobile